createdAt,value
2022-11-20T00:04:03.100Z,100552.83
2022-11-20T00:09:25.406Z,100544.02
2022-11-20T00:14:47.581Z,100542.25
2022-11-20T00:20:09.839Z,100550.15
2022-11-20T00:25:32.090Z,100548.38
2022-11-20T00:30:54.377Z,100552.78
2022-11-20T00:36:26.781Z,100564.16
2022-11-20T00:41:49.348Z,100567.70
2022-11-20T00:47:11.532Z,100556.26
2022-11-20T00:52:33.747Z,100556.22
2022-11-20T00:57:55.893Z,100552.72
2022-11-20T01:03:21.601Z,100558.84
2022-11-20T01:08:43.864Z,100556.17
2022-11-20T01:14:08.927Z,100555.31
2022-11-20T01:19:34.564Z,100554.45
2022-11-20T01:24:56.871Z,100543.92
2022-11-20T01:30:20.803Z,100541.25
2022-11-20T01:35:43.530Z,100548.23
2022-11-20T01:41:08.669Z,100549.09
2022-11-20T01:46:41.850Z,100543.78
2022-11-20T01:52:15.497Z,100548.14
2022-11-20T01:57:39.890Z,100550.77
2022-11-20T02:03:19.714Z,100543.68
2022-11-20T02:08:44.206Z,100544.50
2022-11-20T02:14:06.755Z,100549.77
2022-11-20T02:19:38.766Z,100533.97
2022-11-20T02:25:03.179Z,100544.50
2022-11-20T02:30:26.082Z,100537.47
2022-11-20T02:35:53.238Z,100526.08
2022-11-20T02:41:15.543Z,100527.89
2022-11-20T02:46:38.093Z,100515.59
2022-11-20T02:52:00.369Z,100518.23
2022-11-20T02:57:22.684Z,100512.10
2022-11-20T03:02:45.639Z,100523.49
2022-11-20T03:08:07.872Z,100522.63
2022-11-20T03:13:30.053Z,100527.08
2022-11-20T03:18:52.817Z,100532.35
2022-11-20T03:24:15.896Z,100521.83
2022-11-20T03:29:38.165Z,100528.91
2022-11-20T03:35:00.998Z,100528.05
2022-11-20T03:40:23.689Z,100519.34
2022-11-20T03:45:45.913Z,100514.07
2022-11-20T03:51:24.023Z,100515.80
2022-11-20T03:56:49.348Z,100519.28
2022-11-20T04:02:11.712Z,100521.05
2022-11-20T04:07:34.205Z,100526.32
2022-11-20T04:12:56.458Z,100515.84
2022-11-20T04:18:19.637Z,100513.20
2022-11-20T04:23:41.906Z,100512.34
2022-11-20T04:29:04.416Z,100510.63
2022-11-20T04:34:26.981Z,100498.33
2022-11-20T04:39:49.278Z,100509.72
2022-11-20T04:45:11.744Z,100502.69
2022-11-20T04:50:34.002Z,100493.02
2022-11-20T04:55:56.345Z,100492.11
2022-11-20T05:01:29.188Z,100487.71
2022-11-20T05:06:51.468Z,100495.61
2022-11-20T05:12:14.757Z,100487.71
2022-11-20T05:17:37.005Z,100480.73
2022-11-20T05:22:59.284Z,100477.28
2022-11-20T05:28:21.529Z,100475.55
2022-11-20T05:33:44.670Z,100476.42
2022-11-20T05:39:06.920Z,100466.75
2022-11-20T05:44:33.240Z,100477.19
2022-11-20T05:49:55.438Z,100484.98
2022-11-20T05:55:18.301Z,100484.13
2022-11-20T06:00:40.578Z,100483.27
2022-11-20T06:06:03.037Z,100480.68
2022-11-20T06:11:27.016Z,100485.08
2022-11-20T06:16:49.218Z,100492.11
2022-11-20T06:22:11.398Z,100486.84
2022-11-20T06:27:34.483Z,100486.98
2022-11-20T06:32:56.800Z,100486.23
2022-11-20T06:38:19.159Z,100488.81
2022-11-20T06:43:42.488Z,100484.46
2022-11-20T06:49:05.429Z,100484.42
2022-11-20T06:54:27.598Z,100481.73
2022-11-20T06:59:49.808Z,100478.20
2022-11-20T07:05:12.070Z,100472.92
2022-11-20T07:10:34.327Z,100479.91
2022-11-20T07:15:56.626Z,100474.55
2022-11-20T07:21:27.136Z,100468.48
2022-11-20T07:26:50.600Z,100470.92
2022-11-20T07:32:12.790Z,100474.30
2022-11-20T07:37:35.324Z,100478.61
2022-11-20T07:43:04.749Z,100473.30
2022-11-20T07:48:26.957Z,100457.45
2022-11-20T07:53:49.674Z,100455.58
2022-11-20T07:59:13.058Z,100458.16
2022-11-20T08:04:35.351Z,100459.01
2022-11-20T08:09:57.867Z,100448.28
2022-11-20T08:15:21.868Z,100452.57
2022-11-20T08:20:44.977Z,100451.39
2022-11-20T08:26:08.778Z,100455.48
2022-11-20T08:31:31.648Z,100456.39
2022-11-20T08:36:54.177Z,100441.19
2022-11-20T08:42:18.398Z,100447.25
2022-11-20T08:47:40.695Z,100434.03
2022-11-20T08:53:03.160Z,100436.44
2022-11-20T08:58:26.032Z,100426.83
2022-11-20T09:03:48.570Z,100430.94
2022-11-20T09:09:14.548Z,100416.73
2022-11-20T09:14:36.728Z,100421.38
2022-11-20T09:19:59.936Z,100416.34
2022-11-20T09:25:22.713Z,100415.41
2022-11-20T09:30:45.755Z,100409.86
2022-11-20T09:36:07.989Z,100415.83
2022-11-20T09:41:44.409Z,100406.83
2022-11-20T09:47:39.831Z,100403.41
2022-11-20T09:59:09.407Z,100391.27
2022-11-20T10:04:41.836Z,100398.41
2022-11-20T10:10:10.039Z,100399.56
2022-11-20T10:15:41.804Z,100401.45
2022-11-20T10:21:26.873Z,100399.10
2022-11-20T10:27:02.410Z,100398.69
2022-11-20T10:32:32.521Z,100392.56
2022-11-20T10:38:08.052Z,100389.06
2022-11-20T10:43:37.941Z,100381.00
2022-11-20T10:49:02.122Z,100371.22
2022-11-20T10:54:53.525Z,100368.09
2022-11-20T11:00:22.196Z,100374.17
2022-11-20T11:06:10.015Z,100378.02
2022-11-20T11:11:41.933Z,100373.83
2022-11-20T11:17:11.794Z,100370.12
2022-11-20T11:22:36.546Z,100370.06
2022-11-20T11:28:09.074Z,100368.45
2022-11-20T11:33:40.177Z,100363.02
2022-11-20T11:39:05.180Z,100363.69
2022-11-20T11:45:00.464Z,100364.66
2022-11-20T11:50:27.012Z,100366.05
2022-11-20T11:56:12.441Z,100364.62
2022-11-20T12:02:00.279Z,100355.00
2022-11-20T12:07:47.297Z,100358.55
2022-11-20T12:13:02.435Z,100353.18
2022-11-20T12:18:28.546Z,100353.07
2022-11-20T12:24:19.722Z,100345.70
2022-11-20T12:30:13.953Z,100330.59
2022-11-20T12:35:57.940Z,100328.57
2022-11-20T12:42:21.406Z,100320.30
2022-11-20T12:48:06.691Z,100319.30
2022-11-20T12:54:05.270Z,100300.67
2022-11-20T12:59:47.415Z,100298.52
2022-11-20T13:05:45.968Z,100291.02
2022-11-20T13:11:47.667Z,100290.78
2022-11-20T13:17:29.175Z,100290.02
2022-11-20T13:28:37.947Z,100271.70
2022-11-20T13:34:01.767Z,100272.39
2022-11-20T13:39:33.799Z,100249.28
2022-11-20T13:45:02.653Z,100255.59
2022-11-20T13:50:29.682Z,100260.92
2022-11-20T13:56:15.270Z,100253.02
2022-11-20T14:01:44.043Z,100267.06
2022-11-20T14:07:08.154Z,100249.34
2022-11-20T14:12:38.974Z,100246.77
2022-11-20T14:18:01.767Z,100250.20
2022-11-20T14:23:32.411Z,100245.05
2022-11-20T14:28:56.324Z,100238.92
2022-11-20T14:40:00.388Z,100241.16
2022-11-20T14:45:24.886Z,100245.38
2022-11-20T14:50:48.970Z,100245.58
2022-11-20T14:56:16.270Z,100234.30
2022-11-20T15:01:41.318Z,100224.88
2022-11-20T15:07:12.245Z,100231.18
2022-11-20T15:12:37.178Z,100226.91
2022-11-20T15:18:00.719Z,100218.38
2022-11-20T15:23:26.974Z,100215.83
2022-11-20T15:28:55.465Z,100222.94
2022-11-20T15:34:19.619Z,100209.87
2022-11-20T15:39:42.344Z,100209.94
2022-11-20T15:45:05.211Z,100205.53
2022-11-20T15:50:30.708Z,100208.16
2022-11-20T15:55:53.104Z,100204.67
2022-11-20T16:01:19.896Z,100203.81
2022-11-20T16:06:42.494Z,100204.67
2022-11-20T16:12:04.686Z,100205.67
2022-11-20T16:17:29.611Z,100202.23
2022-11-20T16:22:51.946Z,100199.59
2022-11-20T16:28:18.879Z,100197.94
2022-11-20T16:33:39.199Z,100192.67
2022-11-20T16:39:04.230Z,100197.88
2022-11-20T16:44:27.607Z,100193.53
2022-11-20T16:49:49.839Z,100188.27
2022-11-20T16:55:12.526Z,100190.90
2022-11-20T17:00:35.589Z,100194.33
2022-11-20T17:05:57.938Z,100192.55
2022-11-20T17:11:23.750Z,100193.36
2022-11-20T17:16:47.073Z,100187.29
2022-11-20T17:22:10.371Z,100185.57
2022-11-20T17:27:34.182Z,100182.94
2022-11-20T17:32:56.903Z,100184.77
2022-11-20T17:38:19.485Z,100176.81
2022-11-20T17:43:43.071Z,100175.95
2022-11-20T17:49:06.495Z,100165.41
2022-11-20T17:54:29.966Z,100168.84
2022-11-20T17:59:52.192Z,100166.27
2022-11-20T18:05:14.921Z,100154.11
2022-11-20T18:10:37.796Z,100150.73
2022-11-20T18:16:00.550Z,100143.75
2022-11-20T18:21:23.104Z,100148.16
2022-11-20T18:26:45.785Z,100140.31
2022-11-20T18:32:08.035Z,100136.91
2022-11-20T18:37:31.910Z,100139.66
2022-11-20T18:43:13.627Z,100130.90
2022-11-20T18:48:39.242Z,100134.45
2022-11-20T18:54:01.649Z,100130.09
2022-11-20T18:59:26.700Z,100139.86
2022-11-20T19:04:49.514Z,100139.83
2022-11-20T19:10:12.454Z,100147.67
2022-11-20T19:15:36.416Z,100142.41
2022-11-20T19:20:58.734Z,100136.11
2022-11-20T19:26:21.128Z,100139.72
2022-11-20T19:31:44.479Z,100138.08
2022-11-20T19:37:06.676Z,100140.71
2022-11-20T19:42:28.856Z,100147.75
2022-11-20T19:48:08.021Z,100148.61
2022-11-20T19:53:14.999Z,100140.77
2022-11-20T19:58:37.986Z,100139.86
2022-11-20T20:04:05.606Z,100136.34
2022-11-20T20:09:30.841Z,100133.70
2022-11-20T20:14:53.365Z,100136.34
2022-11-20T20:20:16.488Z,100128.44
2022-11-20T20:25:41.833Z,100127.55
2022-11-20T20:31:04.136Z,100127.52
2022-11-20T20:36:29.149Z,100133.70
2022-11-20T20:41:51.361Z,100137.20
2022-11-20T20:47:13.561Z,100132.79
2022-11-20T20:52:35.886Z,100138.80
2022-11-20T20:57:58.905Z,100136.91
2022-11-20T21:03:21.085Z,100133.09
2022-11-20T21:08:45.001Z,100135.59
2022-11-20T21:14:07.842Z,100125.79
2022-11-20T21:19:30.795Z,100117.83
2022-11-20T21:24:53.954Z,100124.93
2022-11-20T21:30:16.757Z,100109.19
2022-11-20T21:35:42.076Z,100118.87
2022-11-20T21:41:04.725Z,100103.12
2022-11-20T21:46:33.976Z,100119.88
2022-11-20T21:51:57.290Z,100107.53
2022-11-20T21:57:19.482Z,100104.92
2022-11-20T22:02:41.656Z,100112.94
2022-11-20T22:08:03.895Z,100104.19
2022-11-20T22:13:44.012Z,100105.96
2022-11-20T22:19:09.641Z,100099.95
2022-11-20T22:24:33.700Z,100090.42
2022-11-20T22:29:55.871Z,100081.91
2022-11-20T22:35:18.764Z,100091.61
2022-11-20T22:40:40.981Z,100097.73
2022-11-20T22:46:13.505Z,100105.60
2022-11-20T22:51:39.012Z,100103.71
2022-11-20T22:57:01.834Z,100103.65
2022-11-20T23:02:24.247Z,100094.89
2022-11-20T23:07:46.622Z,100085.39
2022-11-20T23:13:08.851Z,100085.54
2022-11-20T23:18:31.029Z,100083.09
2022-11-20T23:23:57.200Z,100076.30
2022-11-20T23:29:20.439Z,100067.92
2022-11-20T23:34:42.688Z,100061.34
2022-11-20T23:40:04.945Z,100056.86
2022-11-20T23:45:27.447Z,100063.64
2022-11-20T23:50:51.160Z,100064.50
2022-11-20T23:56:17.407Z,100069.92
